createdAt,value
2023-02-03T00:00:42.987Z,0.00
2023-02-03T00:01:43.019Z,0.00
2023-02-03T00:02:43.000Z,0.00
2023-02-03T00:03:42.949Z,0.00
2023-02-03T00:04:42.937Z,0.00
2023-02-03T00:05:43.019Z,0.00
2023-02-03T00:06:42.892Z,0.00
2023-02-03T00:07:42.895Z,0.00
2023-02-03T00:08:42.862Z,0.00
2023-02-03T00:09:42.860Z,0.00
2023-02-03T00:10:42.835Z,0.00
2023-02-03T00:11:42.853Z,0.00
2023-02-03T00:12:42.816Z,0.00
2023-02-03T00:13:42.825Z,0.00
2023-02-03T00:14:42.812Z,0.00
2023-02-03T00:15:42.798Z,0.00
2023-02-03T00:16:42.868Z,0.00
2023-02-03T00:17:42.810Z,0.00
2023-02-03T00:18:42.756Z,0.00
2023-02-03T00:19:42.761Z,0.00
2023-02-03T00:20:42.726Z,0.00
2023-02-03T00:21:42.730Z,0.00
2023-02-03T00:22:42.732Z,0.00
2023-02-03T00:23:42.720Z,0.00
2023-02-03T00:24:42.700Z,0.00
2023-02-03T00:25:42.687Z,0.00
2023-02-03T00:26:42.669Z,0.00
2023-02-03T00:27:42.717Z,0.00
2023-02-03T00:28:42.656Z,0.00
2023-02-03T00:29:42.643Z,0.00
2023-02-03T00:30:42.631Z,0.00
2023-02-03T00:31:42.735Z,0.00
2023-02-03T00:32:42.673Z,0.00
2023-02-03T00:33:42.593Z,0.00
2023-02-03T00:34:42.622Z,0.00
2023-02-03T00:35:42.589Z,0.00
2023-02-03T00:36:43.128Z,0.00
2023-02-03T00:37:42.575Z,0.00
2023-02-03T00:38:42.566Z,0.00
2023-02-03T00:39:42.566Z,0.00
2023-02-03T00:40:42.536Z,0.00
2023-02-03T00:41:42.525Z,0.00
2023-02-03T00:42:42.503Z,0.00
2023-02-03T00:43:42.537Z,0.00
2023-02-03T00:44:42.489Z,0.00
2023-02-03T00:45:42.511Z,0.00
2023-02-03T00:46:42.488Z,0.00
2023-02-03T00:47:42.457Z,0.00
2023-02-03T00:48:42.424Z,0.00
2023-02-03T00:49:42.439Z,0.00
2023-02-03T00:50:42.415Z,0.00
2023-02-03T00:51:42.421Z,0.00
2023-02-03T00:52:42.403Z,0.00
2023-02-03T00:53:42.395Z,0.00
2023-02-03T00:54:42.394Z,0.00
2023-02-03T00:55:42.374Z,0.00
2023-02-03T00:56:42.365Z,0.00
2023-02-03T00:57:42.341Z,0.00
2023-02-03T00:58:42.309Z,0.00
2023-02-03T00:59:42.370Z,0.00
2023-02-03T01:00:42.305Z,0.00
2023-02-03T01:01:42.296Z,0.00
2023-02-03T01:02:42.389Z,0.00
2023-02-03T01:03:42.331Z,0.00
2023-02-03T01:04:42.263Z,0.00
2023-02-03T01:05:42.239Z,0.00
2023-02-03T01:06:42.278Z,0.00
2023-02-03T01:07:42.250Z,0.00
2023-02-03T01:08:42.221Z,0.00
2023-02-03T01:09:42.246Z,0.00
2023-02-03T01:10:42.192Z,0.00
2023-02-03T01:11:42.192Z,0.00
2023-02-03T01:12:42.173Z,0.00
2023-02-03T01:13:42.200Z,0.00
2023-02-03T01:14:42.166Z,0.00
2023-02-03T01:15:42.149Z,0.00
2023-02-03T01:16:42.153Z,0.00
2023-02-03T01:17:42.151Z,0.00
2023-02-03T01:18:42.110Z,0.00
2023-02-03T01:19:42.117Z,0.00
2023-02-03T01:20:42.097Z,0.00
2023-02-03T01:21:42.104Z,0.00
2023-02-03T01:22:42.100Z,0.00
2023-02-03T01:23:42.057Z,0.00
2023-02-03T01:24:42.053Z,0.00
2023-02-03T01:25:42.053Z,0.00
2023-02-03T01:26:42.031Z,0.00
2023-02-03T01:27:42.072Z,0.00
2023-02-03T01:28:42.019Z,0.00
2023-02-03T01:29:42.016Z,0.00
2023-02-03T01:30:42.062Z,0.00
2023-02-03T01:31:42.115Z,0.00
2023-02-03T01:32:41.957Z,0.00
2023-02-03T01:33:41.972Z,0.00
2023-02-03T01:34:41.943Z,0.00
2023-02-03T01:35:41.916Z,0.00
2023-02-03T01:36:41.910Z,0.00
2023-02-03T01:37:41.912Z,0.00
2023-02-03T01:38:41.907Z,0.00
2023-02-03T01:39:41.910Z,0.00
2023-02-03T01:40:41.862Z,0.00
2023-02-03T01:41:41.878Z,0.00
2023-02-03T01:42:41.852Z,0.00
2023-02-03T01:43:41.855Z,0.00
2023-02-03T01:44:41.817Z,0.00
2023-02-03T01:45:41.943Z,0.00
2023-02-03T01:46:41.827Z,0.00
2023-02-03T01:47:41.807Z,0.00
2023-02-03T01:48:41.820Z,0.00
2023-02-03T01:49:41.844Z,0.00
2023-02-03T01:50:41.772Z,0.00
2023-02-03T01:51:41.781Z,0.00
2023-02-03T01:52:41.762Z,0.00
2023-02-03T01:53:41.747Z,0.00
2023-02-03T01:54:41.743Z,0.00
2023-02-03T01:55:41.731Z,0.00
2023-02-03T01:56:41.683Z,0.00
2023-02-03T01:57:41.705Z,0.00
2023-02-03T01:58:41.676Z,0.00
2023-02-03T01:59:41.670Z,0.00
2023-02-03T02:00:41.684Z,0.00
2023-02-03T02:01:41.695Z,0.00
2023-02-03T02:02:41.647Z,0.00
2023-02-03T02:03:41.628Z,0.00
2023-02-03T02:04:41.625Z,0.00
2023-02-03T02:05:41.608Z,0.00
2023-02-03T02:06:41.605Z,0.00
2023-02-03T02:07:41.571Z,0.00
2023-02-03T02:08:41.570Z,0.00
2023-02-03T02:09:41.581Z,0.00
2023-02-03T02:10:41.541Z,0.00
2023-02-03T02:11:41.563Z,0.00
2023-02-03T02:12:41.512Z,0.00
2023-02-03T02:13:41.523Z,0.00
2023-02-03T02:14:41.551Z,0.00
2023-02-03T02:15:41.557Z,0.00
2023-02-03T02:16:41.499Z,0.00
2023-02-03T02:17:41.481Z,0.00
2023-02-03T02:18:41.457Z,0.00
2023-02-03T02:19:41.484Z,0.00
2023-02-03T02:20:41.438Z,0.00
2023-02-03T02:21:41.457Z,0.00
2023-02-03T02:22:41.414Z,0.00
2023-02-03T02:23:41.406Z,0.00
2023-02-03T02:24:41.409Z,0.00
2023-02-03T02:25:41.395Z,0.00
2023-02-03T02:26:41.363Z,0.00
2023-02-03T02:27:41.376Z,0.00
2023-02-03T02:28:41.359Z,0.00
2023-02-03T02:29:41.352Z,0.00
2023-02-03T02:30:41.421Z,0.00
2023-02-03T02:31:41.488Z,0.00
2023-02-03T02:32:41.311Z,0.00
2023-02-03T02:33:41.318Z,0.00
2023-02-03T02:34:41.287Z,0.00
2023-02-03T02:35:41.278Z,0.00
2023-02-03T02:36:41.284Z,0.00
2023-02-03T02:37:41.258Z,0.00
2023-02-03T02:38:41.241Z,0.00
2023-02-03T02:39:41.239Z,0.00
2023-02-03T02:40:41.235Z,0.00
2023-02-03T02:41:41.207Z,0.00
2023-02-03T02:42:41.210Z,0.00
2023-02-03T02:43:41.202Z,0.00
2023-02-03T02:44:41.187Z,0.00
2023-02-03T02:45:41.193Z,0.00
2023-02-03T02:46:41.195Z,0.00
2023-02-03T02:47:41.157Z,0.00
2023-02-03T02:48:41.181Z,0.00
2023-02-03T02:49:41.128Z,0.00
2023-02-03T02:50:41.112Z,0.00
2023-02-03T02:51:41.127Z,0.00
2023-02-03T02:52:41.121Z,0.00
2023-02-03T02:53:41.097Z,0.00
2023-02-03T02:54:41.117Z,0.00
2023-02-03T02:55:41.061Z,0.00
2023-02-03T02:56:41.047Z,0.00
2023-02-03T02:57:41.059Z,0.00
2023-02-03T02:58:41.035Z,0.00
2023-02-03T02:59:41.054Z,0.00
2023-02-03T03:00:41.027Z,0.00
2023-02-03T03:01:41.112Z,0.00
2023-02-03T03:02:40.991Z,0.00
2023-02-03T03:03:41.007Z,0.00
2023-02-03T03:04:41.007Z,0.00
2023-02-03T03:05:40.961Z,0.00
2023-02-03T03:06:40.944Z,0.00
2023-02-03T03:07:40.954Z,0.00
2023-02-03T03:08:40.917Z,0.00
2023-02-03T03:09:40.917Z,0.00
2023-02-03T03:10:40.892Z,0.00
2023-02-03T03:11:40.941Z,0.00
2023-02-03T03:12:40.895Z,0.00
2023-02-03T03:13:40.874Z,0.00
2023-02-03T03:14:40.889Z,0.00
2023-02-03T03:15:40.906Z,0.00
2023-02-03T03:16:40.832Z,0.00
2023-02-03T03:17:40.887Z,0.00
2023-02-03T03:18:40.808Z,0.00
2023-02-03T03:19:40.801Z,0.00
2023-02-03T03:20:40.809Z,0.00
2023-02-03T03:21:40.784Z,0.00
2023-02-03T03:22:40.767Z,0.00
2023-02-03T03:23:40.762Z,0.00
2023-02-03T03:24:40.749Z,0.00
2023-02-03T03:25:40.762Z,0.00
2023-02-03T03:26:40.765Z,0.00
2023-02-03T03:27:40.745Z,0.00
2023-02-03T03:28:40.702Z,0.00
2023-02-03T03:29:40.706Z,0.00
2023-02-03T03:30:40.727Z,0.00
2023-02-03T03:31:40.820Z,0.00
2023-02-03T03:32:40.687Z,0.00
2023-02-03T03:33:40.657Z,0.00
2023-02-03T03:34:40.637Z,0.00
2023-02-03T03:35:40.649Z,0.00
2023-02-03T03:36:40.631Z,0.00
2023-02-03T03:37:40.611Z,0.00
2023-02-03T03:38:40.614Z,0.00
2023-02-03T03:39:40.597Z,0.00
2023-02-03T03:40:40.595Z,0.00
2023-02-03T03:41:40.566Z,0.00
2023-02-03T03:42:40.541Z,0.00
2023-02-03T03:43:40.586Z,0.00
2023-02-03T03:44:40.537Z,0.00
2023-02-03T03:45:40.535Z,0.00
2023-02-03T03:46:40.514Z,0.00
2023-02-03T03:47:40.507Z,0.00
2023-02-03T03:48:40.502Z,0.00
2023-02-03T03:49:40.515Z,0.00
2023-02-03T03:50:40.480Z,0.00
2023-02-03T03:51:40.490Z,0.00
2023-02-03T03:52:40.444Z,0.00
2023-02-03T03:53:40.455Z,0.00
2023-02-03T03:54:40.452Z,0.00
2023-02-03T03:55:40.421Z,0.00
2023-02-03T03:56:40.435Z,0.00
2023-02-03T03:57:40.385Z,0.00
2023-02-03T03:58:40.391Z,0.00
2023-02-03T03:59:40.416Z,0.00
2023-02-03T04:00:40.373Z,0.00
2023-02-03T04:01:40.499Z,0.00
2023-02-03T04:02:40.470Z,0.00
2023-02-03T04:03:40.352Z,0.00
2023-02-03T04:04:40.324Z,0.00
2023-02-03T04:05:40.296Z,0.00
2023-02-03T04:06:40.320Z,0.00
2023-02-03T04:07:40.282Z,0.00
2023-02-03T04:08:40.270Z,0.00
2023-02-03T04:09:40.286Z,0.00
2023-02-03T04:10:40.275Z,0.00
2023-02-03T04:11:40.228Z,0.00
2023-02-03T04:12:40.233Z,0.00
2023-02-03T04:13:40.243Z,0.00
2023-02-03T04:14:40.216Z,0.00
2023-02-03T04:15:40.195Z,0.00
2023-02-03T04:16:40.191Z,0.00
2023-02-03T04:17:40.177Z,0.00
2023-02-03T04:18:40.169Z,0.00
2023-02-03T04:19:40.169Z,0.00
2023-02-03T04:20:40.152Z,0.00
2023-02-03T04:21:40.134Z,0.00
2023-02-03T04:22:40.135Z,0.00
2023-02-03T04:23:40.108Z,0.00
2023-02-03T04:24:40.125Z,0.00
2023-02-03T04:25:40.105Z,0.00
2023-02-03T04:26:40.085Z,0.00
2023-02-03T04:27:40.130Z,0.00
2023-02-03T04:28:40.083Z,0.00
2023-02-03T04:29:40.030Z,0.00
2023-02-03T04:30:40.095Z,0.00
2023-02-03T04:31:40.072Z,0.00
2023-02-03T04:32:40.018Z,0.00
2023-02-03T04:33:40.009Z,0.00
2023-02-03T04:34:40.439Z,0.00
2023-02-03T04:35:40.011Z,0.00
2023-02-03T04:36:40.029Z,0.00
2023-02-03T04:37:39.957Z,0.00
2023-02-03T04:38:39.941Z,0.00
2023-02-03T04:39:39.931Z,0.00
2023-02-03T04:40:39.937Z,0.00
2023-02-03T04:41:39.921Z,0.00
2023-02-03T04:42:39.920Z,0.00
2023-02-03T04:43:39.899Z,0.00
2023-02-03T04:44:39.887Z,0.00
2023-02-03T04:45:39.911Z,0.00
2023-02-03T04:46:39.878Z,0.00
2023-02-03T04:47:39.851Z,0.00
2023-02-03T04:48:39.872Z,0.00
2023-02-03T04:49:39.836Z,0.00
2023-02-03T04:50:39.844Z,0.00
2023-02-03T04:51:39.800Z,0.00
2023-02-03T04:52:39.809Z,0.00
2023-02-03T04:53:39.789Z,0.00
2023-02-03T04:54:39.799Z,0.00
2023-02-03T04:55:39.792Z,0.00
2023-02-03T04:56:39.759Z,0.00
2023-02-03T04:57:39.739Z,0.00
2023-02-03T04:58:39.734Z,0.00
2023-02-03T04:59:39.781Z,0.00
2023-02-03T05:00:39.799Z,0.00
2023-02-03T05:01:39.706Z,0.00
2023-02-03T05:02:39.700Z,0.00
2023-02-03T05:03:39.730Z,0.00
2023-02-03T05:04:39.682Z,0.00
2023-02-03T05:05:39.671Z,0.00
2023-02-03T05:06:39.646Z,0.00
2023-02-03T05:07:39.619Z,0.00
2023-02-03T05:08:39.628Z,0.00
2023-02-03T05:09:39.623Z,0.00
2023-02-03T05:10:39.608Z,0.00
2023-02-03T05:11:39.631Z,0.00
2023-02-03T05:12:39.619Z,0.00
2023-02-03T05:13:39.563Z,0.00
2023-02-03T05:14:39.579Z,0.00
2023-02-03T05:15:39.548Z,0.00
2023-02-03T05:16:39.565Z,0.00
2023-02-03T05:17:39.529Z,0.00
2023-02-03T05:18:39.528Z,0.00
2023-02-03T05:19:39.535Z,0.00
2023-02-03T05:20:39.490Z,0.00
2023-02-03T05:21:39.470Z,0.00
2023-02-03T05:22:39.501Z,0.00
2023-02-03T05:23:39.450Z,0.00
2023-02-03T05:24:39.466Z,0.00
2023-02-03T05:25:39.444Z,0.00
2023-02-03T05:26:39.435Z,0.00
2023-02-03T05:27:39.436Z,0.00
2023-02-03T05:28:39.434Z,0.00
2023-02-03T05:29:39.401Z,0.00
2023-02-03T05:30:39.444Z,0.00
2023-02-03T05:31:39.421Z,0.00
2023-02-03T05:32:39.360Z,0.00
2023-02-03T05:33:39.354Z,0.00
2023-02-03T05:34:41.385Z,0.00
2023-02-03T05:35:39.386Z,0.00
2023-02-03T05:36:39.360Z,0.00
2023-02-03T05:37:39.321Z,0.00
2023-02-03T05:38:39.312Z,0.00
2023-02-03T05:39:39.288Z,0.00
2023-02-03T05:40:39.292Z,0.00
2023-02-03T05:41:39.302Z,0.00
2023-02-03T05:42:39.269Z,0.00
2023-02-03T05:43:39.251Z,0.00
2023-02-03T05:44:39.272Z,0.00
2023-02-03T05:45:39.234Z,0.00
2023-02-03T05:46:39.222Z,0.00
2023-02-03T05:47:39.221Z,0.00
2023-02-03T05:48:39.212Z,0.00
2023-02-03T05:49:39.179Z,0.00
2023-02-03T05:50:39.182Z,0.00
2023-02-03T05:51:39.158Z,0.00
2023-02-03T05:52:39.171Z,0.00
2023-02-03T05:53:39.170Z,0.00
2023-02-03T05:54:39.141Z,0.00
2023-02-03T05:55:39.129Z,0.00
2023-02-03T05:56:39.136Z,0.00
2023-02-03T05:57:39.105Z,0.00
2023-02-03T05:58:39.087Z,0.00
2023-02-03T05:59:39.064Z,0.00
2023-02-03T06:00:39.169Z,0.00
2023-02-03T06:01:39.080Z,0.00
2023-02-03T06:02:39.038Z,0.00
2023-02-03T06:03:39.161Z,0.00
2023-02-03T06:04:39.123Z,0.00
2023-02-03T06:05:38.988Z,0.00
2023-02-03T06:06:38.999Z,0.00
2023-02-03T06:07:39.005Z,0.00
2023-02-03T06:08:39.001Z,0.00
2023-02-03T06:09:38.955Z,0.00
2023-02-03T06:10:39.001Z,0.00
2023-02-03T06:11:39.007Z,0.00
2023-02-03T06:12:38.948Z,0.00
2023-02-03T06:13:38.932Z,0.00
2023-02-03T06:14:38.920Z,0.00
2023-02-03T06:15:38.890Z,0.00
2023-02-03T06:16:38.997Z,0.00
2023-02-03T06:17:38.870Z,0.00
2023-02-03T06:18:38.878Z,0.00
2023-02-03T06:19:38.884Z,0.00
2023-02-03T06:20:38.864Z,0.00
2023-02-03T06:21:38.843Z,0.00
2023-02-03T06:22:38.821Z,0.00
2023-02-03T06:23:38.822Z,0.00
2023-02-03T06:24:38.862Z,0.00
2023-02-03T06:25:38.781Z,0.00
2023-02-03T06:26:38.783Z,0.00
2023-02-03T06:27:38.818Z,0.00
2023-02-03T06:28:38.794Z,0.00
2023-02-03T06:29:38.748Z,0.00
2023-02-03T06:30:38.902Z,0.00
2023-02-03T06:31:38.922Z,0.00
2023-02-03T06:32:38.735Z,0.00
2023-02-03T06:33:38.735Z,0.00
2023-02-03T06:34:38.746Z,0.00
2023-02-03T06:35:39.315Z,0.00
2023-02-03T06:36:38.675Z,0.00
2023-02-03T06:37:38.717Z,0.00
2023-02-03T06:38:38.699Z,0.00
2023-02-03T06:39:38.638Z,0.00
2023-02-03T06:40:38.703Z,0.00
2023-02-03T06:41:38.610Z,0.00
2023-02-03T06:42:38.689Z,0.00
2023-02-03T06:43:38.596Z,0.00
2023-02-03T06:44:38.544Z,1.00
2023-02-03T06:45:38.577Z,0.00
2023-02-03T06:46:38.599Z,0.00
2023-02-03T06:47:38.552Z,0.00
2023-02-03T06:48:38.548Z,0.00
2023-02-03T06:49:38.543Z,0.00
2023-02-03T06:50:38.509Z,1.00
2023-02-03T06:51:38.545Z,1.00
2023-02-03T06:52:38.489Z,1.00
2023-02-03T06:53:38.430Z,1.00
2023-02-03T06:54:38.454Z,1.00
2023-02-03T06:55:38.423Z,1.00
2023-02-03T06:56:38.428Z,2.00
2023-02-03T06:57:38.398Z,2.00
2023-02-03T06:58:38.396Z,2.00
2023-02-03T06:59:38.402Z,2.00
2023-02-03T07:00:38.376Z,3.00
2023-02-03T07:01:38.368Z,3.00
2023-02-03T07:02:38.387Z,3.00
2023-02-03T07:03:38.348Z,3.00
2023-02-03T07:04:38.337Z,5.00
2023-02-03T07:05:38.293Z,3.00
2023-02-03T07:06:38.305Z,5.00
2023-02-03T07:07:38.274Z,6.00
2023-02-03T07:08:38.296Z,7.00
2023-02-03T07:09:38.256Z,7.00
2023-02-03T07:10:38.276Z,7.00
2023-02-03T07:11:38.238Z,7.00
2023-02-03T07:12:38.249Z,6.00
2023-02-03T07:13:38.273Z,7.00
2023-02-03T07:14:38.209Z,11.00
2023-02-03T07:15:38.302Z,11.00
2023-02-03T07:16:38.190Z,9.00
2023-02-03T07:17:38.196Z,10.00
2023-02-03T07:18:47.700Z,9.00
2023-02-03T07:19:38.186Z,10.00
2023-02-03T07:20:38.175Z,10.00
2023-02-03T07:21:38.121Z,11.00
2023-02-03T07:22:38.133Z,10.00
2023-02-03T07:23:38.118Z,12.00
2023-02-03T07:24:38.128Z,13.00
2023-02-03T07:25:38.125Z,17.00
2023-02-03T07:26:38.109Z,18.00
2023-02-03T07:27:38.104Z,19.00
2023-02-03T07:28:38.067Z,29.00
2023-02-03T07:29:38.061Z,27.00
2023-02-03T07:30:38.065Z,27.00
2023-02-03T07:31:38.217Z,25.00
2023-02-03T07:32:38.067Z,25.00
2023-02-03T07:33:37.997Z,33.00
2023-02-03T07:34:38.043Z,36.00
2023-02-03T07:35:38.006Z,40.00
2023-02-03T07:36:38.045Z,36.00
2023-02-03T07:37:37.966Z,38.00
2023-02-03T07:38:38.052Z,35.00
2023-02-03T07:39:37.940Z,40.00
2023-02-03T07:40:37.932Z,43.00
2023-02-03T07:41:37.931Z,41.00
2023-02-03T07:42:37.910Z,47.00
2023-02-03T07:43:37.920Z,47.00
2023-02-03T07:44:37.886Z,41.00
2023-02-03T07:45:37.903Z,50.00
2023-02-03T07:46:37.929Z,60.00
2023-02-03T07:47:37.843Z,58.00
2023-02-03T07:48:37.905Z,65.00
2023-02-03T07:49:37.917Z,76.00
2023-02-03T07:50:37.831Z,77.00
2023-02-03T07:51:37.812Z,74.00
2023-02-03T07:52:37.828Z,73.00
2023-02-03T07:53:37.789Z,77.00
2023-02-03T07:54:37.781Z,84.00
2023-02-03T07:55:37.804Z,90.00
2023-02-03T07:56:37.808Z,89.00
2023-02-03T07:57:37.761Z,101.00
2023-02-03T07:58:37.733Z,107.00
2023-02-03T07:59:37.720Z,103.00
2023-02-03T08:00:37.727Z,89.00
2023-02-03T08:01:37.817Z,100.00
2023-02-03T08:02:37.706Z,108.00
2023-02-03T08:03:37.713Z,118.00
2023-02-03T08:04:37.734Z,121.00
2023-02-03T08:05:37.706Z,121.00
2023-02-03T08:06:37.648Z,117.00
2023-02-03T08:07:37.667Z,106.00
2023-02-03T08:08:37.612Z,98.00
2023-02-03T08:09:37.633Z,109.00
2023-02-03T08:10:37.609Z,115.00
2023-02-03T08:11:37.612Z,113.00
2023-02-03T08:12:37.632Z,146.00
2023-02-03T08:13:37.592Z,139.00
2023-02-03T08:14:37.564Z,136.00
2023-02-03T08:15:37.564Z,140.00
2023-02-03T08:16:37.580Z,131.00
2023-02-03T08:17:37.543Z,144.00
2023-02-03T08:18:37.549Z,143.00
2023-02-03T08:19:37.546Z,171.00
2023-02-03T08:20:37.506Z,183.00
2023-02-03T08:21:37.499Z,198.00
2023-02-03T08:22:37.488Z,167.00
2023-02-03T08:23:37.487Z,158.00
2023-02-03T08:24:37.497Z,192.00
2023-02-03T08:25:37.478Z,226.00
2023-02-03T08:26:37.448Z,257.00
2023-02-03T08:27:37.457Z,243.00
2023-02-03T08:28:37.421Z,243.00
2023-02-03T08:29:37.438Z,261.00
2023-02-03T08:30:37.421Z,288.00
2023-02-03T08:31:37.524Z,300.00
2023-02-03T08:32:37.381Z,310.00
2023-02-03T08:33:37.384Z,290.00
2023-02-03T08:34:37.339Z,260.00
2023-02-03T08:35:37.362Z,333.00
2023-02-03T08:36:37.324Z,308.00
2023-02-03T08:37:37.330Z,409.00
2023-02-03T08:38:37.336Z,345.00
2023-02-03T08:39:37.335Z,419.00
2023-02-03T08:40:37.285Z,432.00
2023-02-03T08:41:37.280Z,327.00
2023-02-03T08:42:37.273Z,404.00
2023-02-03T08:43:37.271Z,430.00
2023-02-03T08:44:37.262Z,442.00
2023-02-03T08:45:37.258Z,393.00
2023-02-03T08:46:37.231Z,532.00
2023-02-03T08:47:37.271Z,626.00
2023-02-03T08:48:37.264Z,580.00
2023-02-03T08:49:37.217Z,439.00
2023-02-03T08:50:37.181Z,498.00
2023-02-03T08:51:37.231Z,439.00
2023-02-03T08:52:37.160Z,640.00
2023-02-03T08:53:37.178Z,523.00
2023-02-03T08:54:37.163Z,504.00
2023-02-03T08:55:37.157Z,609.00
2023-02-03T08:56:37.143Z,736.00
2023-02-03T08:57:37.101Z,558.00
2023-02-03T08:58:37.112Z,512.00
2023-02-03T08:59:37.102Z,444.00
2023-02-03T09:00:37.108Z,476.00
2023-02-03T09:01:37.072Z,461.00
2023-02-03T09:02:37.081Z,570.00
2023-02-03T09:03:37.081Z,452.00
2023-02-03T09:04:37.152Z,561.00
2023-02-03T09:05:37.051Z,412.00
2023-02-03T09:06:37.009Z,354.00
2023-02-03T09:07:37.079Z,467.00
2023-02-03T09:08:36.988Z,486.00
2023-02-03T09:09:37.025Z,488.00
2023-02-03T09:10:37.052Z,560.00
2023-02-03T09:11:37.056Z,461.00
2023-02-03T09:12:36.959Z,411.00
2023-02-03T09:13:37.009Z,508.00
2023-02-03T09:14:36.928Z,500.00
2023-02-03T09:15:36.940Z,467.00
2023-02-03T09:16:36.953Z,487.00
2023-02-03T09:17:36.940Z,517.00
2023-02-03T09:18:36.903Z,461.00
2023-02-03T09:19:36.905Z,502.00
2023-02-03T09:20:36.904Z,450.00
2023-02-03T09:21:41.779Z,490.00
2023-02-03T09:22:36.862Z,519.00
2023-02-03T09:23:36.861Z,586.00
2023-02-03T09:24:36.840Z,562.00
2023-02-03T09:25:36.826Z,553.00
2023-02-03T09:26:36.826Z,622.00
2023-02-03T09:27:36.881Z,658.00
2023-02-03T09:28:36.794Z,758.00
2023-02-03T09:29:36.787Z,803.00
2023-02-03T09:30:36.822Z,915.00
2023-02-03T09:31:36.881Z,911.00
2023-02-03T09:32:36.764Z,946.00
2023-02-03T09:33:36.772Z,989.00
2023-02-03T09:34:36.737Z,848.00
2023-02-03T09:35:36.729Z,773.00
2023-02-03T09:36:36.719Z,709.00
2023-02-03T09:37:36.917Z,645.00
2023-02-03T09:38:36.694Z,705.00
2023-02-03T09:39:36.674Z,823.00
2023-02-03T09:40:36.695Z,677.00
2023-02-03T09:41:36.683Z,775.00
2023-02-03T09:42:36.667Z,840.00
2023-02-03T09:43:36.644Z,702.00
2023-02-03T09:44:36.655Z,681.00
2023-02-03T09:45:36.646Z,748.00
2023-02-03T09:46:36.591Z,742.00
2023-02-03T09:47:36.645Z,685.00
2023-02-03T09:48:36.640Z,649.00
2023-02-03T09:49:36.626Z,541.00
2023-02-03T09:50:36.561Z,455.00
2023-02-03T09:51:36.567Z,460.00
2023-02-03T09:52:36.548Z,440.00
2023-02-03T09:53:36.642Z,446.00
2023-02-03T09:54:36.519Z,401.00
2023-02-03T09:55:36.543Z,357.00
2023-02-03T09:56:36.516Z,382.00
2023-02-03T09:57:36.528Z,404.00
2023-02-03T09:58:36.461Z,411.00
2023-02-03T09:59:36.485Z,364.00
2023-02-03T10:00:36.454Z,326.00
2023-02-03T10:01:36.470Z,322.00
2023-02-03T10:02:36.549Z,327.00
2023-02-03T10:03:36.476Z,364.00
2023-02-03T10:04:36.405Z,430.00
2023-02-03T10:05:36.399Z,453.00
2023-02-03T10:06:36.408Z,453.00
2023-02-03T10:07:36.389Z,441.00
2023-02-03T10:08:36.399Z,459.00
2023-02-03T10:09:36.373Z,439.00
2023-02-03T10:10:36.385Z,469.00
2023-02-03T10:11:36.368Z,493.00
2023-02-03T10:12:36.346Z,449.00
2023-02-03T10:13:38.048Z,469.00
2023-02-03T10:14:36.299Z,516.00
2023-02-03T10:15:36.355Z,477.00
2023-02-03T10:16:36.327Z,461.00
2023-02-03T10:17:36.301Z,470.00
2023-02-03T10:18:36.264Z,448.00
2023-02-03T10:19:36.254Z,415.00
2023-02-03T10:20:36.250Z,468.00
2023-02-03T10:21:36.223Z,399.00
2023-02-03T10:22:36.240Z,474.00
2023-02-03T10:23:36.227Z,491.00
2023-02-03T10:24:36.226Z,483.00
2023-02-03T10:25:36.256Z,478.00
2023-02-03T10:26:36.210Z,484.00
2023-02-03T10:27:36.219Z,449.00
2023-02-03T10:28:36.150Z,398.00
2023-02-03T10:29:36.194Z,435.00
2023-02-03T10:30:36.243Z,541.00
2023-02-03T10:31:36.242Z,519.00
2023-02-03T10:32:36.188Z,456.00
2023-02-03T10:33:36.160Z,421.00
2023-02-03T10:34:36.162Z,447.00
2023-02-03T10:35:36.113Z,507.00
2023-02-03T10:36:36.074Z,524.00
2023-02-03T10:37:36.066Z,468.00
2023-02-03T10:38:36.084Z,542.00
2023-02-03T10:39:36.096Z,550.00
2023-02-03T10:40:36.069Z,504.00
2023-02-03T10:41:36.048Z,540.00
2023-02-03T10:42:36.011Z,466.00
2023-02-03T10:43:36.006Z,469.00
2023-02-03T10:44:35.999Z,417.00
2023-02-03T10:45:36.000Z,482.00
2023-02-03T10:46:36.114Z,466.00
2023-02-03T10:47:35.967Z,505.00
2023-02-03T10:48:35.986Z,470.00
2023-02-03T10:49:35.964Z,431.00
2023-02-03T10:50:35.976Z,408.00
2023-02-03T10:51:35.929Z,415.00
2023-02-03T10:52:35.912Z,399.00
2023-02-03T10:53:35.921Z,337.00
2023-02-03T10:54:35.881Z,349.00
2023-02-03T10:55:35.885Z,353.00
2023-02-03T10:56:35.858Z,305.00
2023-02-03T10:57:35.897Z,339.00
2023-02-03T10:58:35.839Z,380.00
2023-02-03T10:59:35.846Z,366.00
2023-02-03T11:00:35.811Z,339.00
2023-02-03T11:01:35.985Z,429.00
2023-02-03T11:02:35.873Z,421.00
2023-02-03T11:03:35.789Z,458.00
2023-02-03T11:04:35.775Z,407.00
2023-02-03T11:05:35.806Z,438.00
2023-02-03T11:06:35.861Z,467.00
2023-02-03T11:07:35.746Z,432.00
2023-02-03T11:08:35.809Z,375.00
2023-02-03T11:09:35.775Z,383.00
2023-02-03T11:10:35.983Z,421.00
2023-02-03T11:11:35.718Z,432.00
2023-02-03T11:12:35.686Z,445.00
2023-02-03T11:13:35.714Z,533.00
2023-02-03T11:14:35.682Z,604.00
2023-02-03T11:15:35.726Z,555.00
2023-02-03T11:16:37.404Z,531.00
2023-02-03T11:17:35.647Z,480.00
2023-02-03T11:18:35.630Z,792.00
2023-02-03T11:19:35.629Z,801.00
2023-02-03T11:20:35.629Z,480.00
2023-02-03T11:21:35.631Z,687.00
2023-02-03T11:22:35.630Z,757.00
2023-02-03T11:23:35.581Z,527.00
2023-02-03T11:24:35.575Z,695.00
2023-02-03T11:25:35.559Z,519.00
2023-02-03T11:26:35.595Z,477.00
2023-02-03T11:27:35.535Z,389.00
2023-02-03T11:28:35.530Z,250.00
2023-02-03T11:29:35.546Z,289.00
2023-02-03T11:30:35.498Z,317.00
2023-02-03T11:31:35.651Z,415.00
2023-02-03T11:32:35.555Z,387.00
2023-02-03T11:33:35.477Z,388.00
2023-02-03T11:34:35.506Z,421.00
2023-02-03T11:35:35.476Z,502.00
2023-02-03T11:36:35.462Z,391.00
2023-02-03T11:37:35.435Z,369.00
2023-02-03T11:38:35.457Z,353.00
2023-02-03T11:39:35.429Z,377.00
2023-02-03T11:40:35.418Z,386.00
2023-02-03T11:41:35.431Z,452.00
2023-02-03T11:42:35.379Z,448.00
2023-02-03T11:43:35.366Z,325.00
2023-02-03T11:44:35.362Z,375.00
2023-02-03T11:45:35.357Z,389.00
2023-02-03T11:46:35.425Z,352.00
2023-02-03T11:47:35.375Z,431.00
2023-02-03T11:48:35.323Z,384.00
2023-02-03T11:49:35.328Z,372.00
2023-02-03T11:50:35.284Z,535.00
2023-02-03T11:51:35.290Z,615.00
2023-02-03T11:52:35.260Z,627.00
2023-02-03T11:53:42.313Z,471.00
2023-02-03T11:54:35.245Z,801.00
2023-02-03T11:55:35.278Z,577.00
2023-02-03T11:56:35.230Z,663.00
2023-02-03T11:57:35.267Z,707.00
2023-02-03T11:58:35.221Z,556.00
2023-02-03T11:59:35.225Z,669.00
2023-02-03T12:00:35.197Z,656.00
2023-02-03T12:01:35.217Z,711.00
2023-02-03T12:02:35.212Z,530.00
2023-02-03T12:03:35.193Z,623.00
2023-02-03T12:04:35.241Z,457.00
2023-02-03T12:05:35.193Z,883.00
2023-02-03T12:06:35.144Z,738.00
2023-02-03T12:07:35.160Z,874.00
2023-02-03T12:08:35.138Z,816.00
2023-02-03T12:09:35.119Z,966.00
2023-02-03T12:10:35.131Z,738.00
2023-02-03T12:11:35.088Z,667.00
2023-02-03T12:12:35.127Z,573.00
2023-02-03T12:13:35.066Z,392.00
2023-02-03T12:14:35.062Z,498.00
2023-02-03T12:15:35.037Z,780.00
2023-02-03T12:16:35.133Z,667.00
2023-02-03T12:17:35.008Z,755.00
2023-02-03T12:18:35.038Z,1196.00
2023-02-03T12:19:35.020Z,940.00
2023-02-03T12:20:35.009Z,688.00
2023-02-03T12:21:34.971Z,469.00
2023-02-03T12:22:34.981Z,589.00
2023-02-03T12:23:34.951Z,467.00
2023-02-03T12:24:34.970Z,248.00
2023-02-03T12:25:34.950Z,526.00
2023-02-03T12:26:34.925Z,481.00
2023-02-03T12:27:34.931Z,252.00
2023-02-03T12:28:34.946Z,378.00
2023-02-03T12:29:34.898Z,474.00
2023-02-03T12:30:34.945Z,543.00
2023-02-03T12:31:35.000Z,361.00
2023-02-03T12:32:34.881Z,437.00
2023-02-03T12:33:34.841Z,239.00
2023-02-03T12:34:34.882Z,390.00
2023-02-03T12:35:34.889Z,256.00
2023-02-03T12:36:34.826Z,246.00
2023-02-03T12:37:34.813Z,518.00
2023-02-03T12:38:34.805Z,325.00
2023-02-03T12:39:34.811Z,274.00
2023-02-03T12:40:34.808Z,399.00
2023-02-03T12:41:34.761Z,523.00
2023-02-03T12:42:34.817Z,589.00
2023-02-03T12:43:34.749Z,471.00
2023-02-03T12:44:34.776Z,548.00
2023-02-03T12:45:34.740Z,531.00
2023-02-03T12:46:34.749Z,462.00
2023-02-03T12:47:34.757Z,581.00
2023-02-03T12:48:34.708Z,446.00
2023-02-03T12:49:34.690Z,380.00
2023-02-03T12:50:34.866Z,587.00
2023-02-03T12:51:34.654Z,517.00
2023-02-03T12:52:34.688Z,526.00
2023-02-03T12:53:34.660Z,507.00
2023-02-03T12:54:34.644Z,612.00
2023-02-03T12:55:34.631Z,623.00
2023-02-03T12:56:34.663Z,662.00
2023-02-03T12:57:34.653Z,614.00